Time;durP1;ratioP1;P1;durP2;ratioP2;P2;SDS_P1;SDS_P2;PMS_P1;PMS_P2;Temp;Humidity;BMP_temperature;BMP_pressure;BME280_temperature;BME280_humidity;BME280_pressure;Samples;Min_cycle;Max_cycle;Signal;HPM_P1;HPM_P2
2022/08/16 00:01:12;;;;;;;3.92;2.58;;;19.20;99.90;;;;;;5058721;28;20029;-75
2022/08/16 00:03:38;;;;;;;5.75;2.90;;;19.10;99.90;;;;;;5064575;28;20170;-76
2022/08/16 00:06:03;;;;;;;3.90;2.53;;;19.00;99.90;;;;;;5062196;28;20103;-75
2022/08/16 00:08:29;;;;;;;4.88;3.03;;;19.00;99.90;;;;;;5060062;28;20041;-74
2022/08/16 00:10:54;;;;;;;3.78;3.08;;;19.10;99.90;;;;;;5061099;28;20024;-74
2022/08/16 00:13:20;;;;;;;3.55;2.50;;;19.00;99.90;;;;;;5061204;28;20025;-75
2022/08/16 00:15:47;;;;;;;3.05;2.63;;;19.00;99.90;;;;;;5060451;28;20122;-75
2022/08/16 00:18:15;;;;;;;4.68;2.97;;;19.00;99.90;;;;;;5062051;28;20231;-75
2022/08/16 00:20:43;;;;;;;4.88;2.95;;;18.90;99.90;;;;;;5065591;28;20025;-74
2022/08/16 00:23:09;;;;;;;6.28;3.22;;;18.80;99.90;;;;;;5059231;28;20029;-74
2022/08/16 00:25:35;;;;;;;5.28;3.00;;;18.70;99.90;;;;;;5061129;28;20508;-74
2022/08/16 00:28:01;;;;;;;5.50;3.05;;;18.70;99.90;;;;;;5060560;28;20024;-75
2022/08/16 00:30:27;;;;;;;4.60;2.97;;;18.70;99.90;;;;;;5060089;28;20099;-75
2022/08/16 00:32:55;;;;;;;3.70;3.15;;;18.60;99.90;;;;;;5064409;28;20159;-74
2022/08/16 00:35:25;;;;;;;3.75;2.95;;;18.60;99.90;;;;;;5062513;28;20079;-74
2022/08/16 00:37:51;;;;;;;5.00;3.20;;;18.60;99.90;;;;;;5060151;28;20079;-74
2022/08/16 00:40:25;;;;;;;3.78;2.78;;;18.60;99.90;;;;;;5061089;28;20037;-74
2022/08/16 00:42:50;;;;;;;9.23;3.67;;;18.60;99.90;;;;;;5062374;28;20036;-74
2022/08/16 00:45:38;;;;;;;3.83;3.00;;;18.60;99.90;;;;;;5071123;28;20035;-75
2022/08/16 00:48:06;;;;;;;4.47;3.40;;;18.50;99.90;;;;;;5069997;28;20037;-73
2022/08/16 00:50:38;;;;;;;6.40;3.80;;;18.50;99.90;;;;;;5070302;28;20028;-74
2022/08/16 00:53:10;;;;;;;3.72;3.25;;;18.50;99.90;;;;;;5071294;28;20024;-74
2022/08/16 00:55:38;;;;;;;4.00;3.40;;;18.50;99.90;;;;;;5071990;28;20474;-74
2022/08/16 00:58:05;;;;;;;5.78;3.50;;;18.40;99.90;;;;;;5071220;28;20504;-75
2022/08/16 01:00:32;;;;;;;4.90;3.65;;;18.40;99.90;;;;;;5071863;28;20091;-73
2022/08/16 01:03:00;;;;;;;4.72;3.45;;;18.40;99.90;;;;;;5069973;28;20025;-73
2022/08/16 01:05:27;;;;;;;5.63;3.38;;;18.40;99.90;;;;;;5071150;28;20032;-73
2022/08/16 01:07:54;;;;;;;7.35;3.83;;;18.30;99.90;;;;;;5069859;28;20067;-75
2022/08/16 01:10:25;;;;;;;5.20;3.80;;;18.30;99.90;;;;;;5070130;28;20032;-74
2022/08/16 01:12:51;;;;;;;4.20;3.35;;;18.30;99.90;;;;;;5071755;28;20482;-74
2022/08/16 01:15:17;;;;;;;4.63;3.33;;;18.30;99.90;;;;;;5071281;28;20051;-74
2022/08/16 01:17:45;;;;;;;4.38;3.47;;;18.30;99.90;;;;;;5071703;28;20047;-75
2022/08/16 01:20:14;;;;;;;4.65;3.25;;;18.30;99.90;;;;;;5070800;28;20063;-74
2022/08/16 01:23:12;;;;;;;3.78;3.25;;;18.30;99.90;;;;;;5070295;28;20048;-75
2022/08/16 01:25:44;;;;;;;4.85;3.08;;;18.20;99.90;;;;;;5071094;28;20052;-74
2022/08/16 01:28:14;;;;;;;5.18;3.58;;;18.20;99.90;;;;;;5069002;28;20359;-75
2022/08/16 01:30:44;;;;;;;4.65;3.20;;;18.20;99.90;;;;;;5072163;28;20097;-74
2022/08/16 01:33:10;;;;;;;9.15;3.63;;;18.10;99.90;;;;;;5070572;28;20488;-74
2022/08/16 01:35:41;;;;;;;5.68;3.50;;;18.10;99.90;;;;;;5071523;28;20035;-75
2022/08/16 01:38:33;;;;;;;4.00;3.60;;;18.20;99.90;;;;;;5070884;28;20020;-75
2022/08/16 01:41:08;;;;;;;7.13;3.40;;;18.10;99.90;;;;;;5069634;28;20370;-74
2022/08/16 01:43:36;;;;;;;6.93;3.10;;;18.00;99.90;;;;;;5071734;28;20044;-74
2022/08/16 01:46:06;;;;;;;8.73;3.70;;;18.00;99.90;;;;;;5070675;28;20036;-74
2022/08/16 01:48:33;;;;;;;6.07;3.75;;;18.00;99.90;;;;;;5071146;28;20132;-74
2022/08/16 01:51:01;;;;;;;4.20;3.38;;;18.00;99.90;;;;;;5071148;28;20082;-74
2022/08/16 01:53:28;;;;;;;6.15;3.35;;;18.00;99.90;;;;;;5071181;28;20115;-75
2022/08/16 01:55:54;;;;;;;4.47;3.38;;;18.00;99.90;;;;;;5069532;28;20037;-73
2022/08/16 01:58:21;;;;;;;4.28;3.70;;;18.00;99.90;;;;;;5071339;28;20017;-74
2022/08/16 02:00:47;;;;;;;3.58;3.25;;;17.90;99.90;;;;;;5085552;28;20047;-75
2022/08/16 02:03:13;;;;;;;4.47;3.97;;;18.00;99.90;;;;;;5070419;28;20020;-74
2022/08/16 02:05:39;;;;;;;4.80;3.80;;;18.00;99.90;;;;;;5071304;28;20029;-74
2022/08/16 02:08:06;;;;;;;4.38;3.75;;;18.00;99.90;;;;;;5070461;28;20104;-74
2022/08/16 02:10:33;;;;;;;5.40;3.85;;;18.00;99.90;;;;;;5069477;28;20119;-75
2022/08/16 02:12:59;;;;;;;5.75;3.30;;;18.00;99.90;;;;;;5071161;28;20040;-75
2022/08/16 02:15:28;;;;;;;4.30;3.63;;;18.00;99.90;;;;;;5070744;28;20040;-75
2022/08/16 02:17:55;;;;;;;4.57;3.85;;;17.90;99.90;;;;;;5071085;28;20491;-75
2022/08/16 02:20:22;;;;;;;4.82;4.03;;;17.90;99.90;;;;;;5070576;28;20051;-75
2022/08/16 02:22:48;;;;;;;4.40;4.00;;;17.90;99.90;;;;;;5071254;28;20036;-74
2022/08/16 02:25:15;;;;;;;5.65;3.60;;;17.90;99.90;;;;;;5069748;28;20059;-75
2022/08/16 02:27:44;;;;;;;4.93;3.53;;;17.90;99.90;;;;;;5067232;28;20051;-75
2022/08/16 02:30:16;;;;;;;4.95;3.85;;;18.00;99.90;;;;;;5070448;28;20107;-75
2022/08/16 02:32:42;;;;;;;4.03;3.63;;;18.10;99.90;;;;;;5071966;28;20389;-75
2022/08/16 02:35:09;;;;;;;4.97;3.72;;;18.10;99.90;;;;;;5073662;28;20157;-76
2022/08/16 02:37:34;;;;;;;4.70;4.25;;;18.10;99.90;;;;;;5074593;28;20541;-75
2022/08/16 02:40:00;;;;;;;5.07;4.50;;;18.20;99.90;;;;;;5074376;28;20096;-75
2022/08/16 02:42:26;;;;;;;5.38;3.42;;;18.40;99.90;;;;;;5074099;28;20029;-75
2022/08/16 02:44:51;;;;;;;5.15;3.72;;;18.40;99.90;;;;;;5071687;28;20439;-75
2022/08/16 02:47:17;;;;;;;5.05;3.65;;;18.40;99.90;;;;;;5073922;28;20119;-75
2022/08/16 02:49:43;;;;;;;4.03;3.63;;;18.30;99.90;;;;;;5074320;28;20390;-74
2022/08/16 02:52:09;;;;;;;4.30;3.67;;;18.30;99.90;;;;;;5073372;28;20039;-75
2022/08/16 02:54:35;;;;;;;6.50;4.07;;;18.30;99.90;;;;;;5074254;28;20036;-75
2022/08/16 02:57:03;;;;;;;5.70;3.50;;;18.30;99.90;;;;;;5072855;28;20024;-75
2022/08/16 02:59:28;;;;;;;4.55;3.60;;;18.30;99.90;;;;;;5080437;28;20039;-75
2022/08/16 03:01:55;;;;;;;6.28;3.38;;;18.20;99.90;;;;;;5072742;28;20033;-74
2022/08/16 03:04:21;;;;;;;4.20;3.55;;;18.20;99.90;;;;;;5073546;28;20131;-73
2022/08/16 03:06:47;;;;;;;4.75;3.45;;;18.10;99.90;;;;;;5073823;28;20037;-74
2022/08/16 03:09:13;;;;;;;4.43;4.03;;;18.10;99.90;;;;;;5072126;28;20021;-74
2022/08/16 03:11:38;;;;;;;4.22;3.80;;;18.00;99.90;;;;;;5073867;28;20449;-74
2022/08/16 03:14:05;;;;;;;5.53;3.67;;;18.10;99.90;;;;;;5073494;28;20056;-75
2022/08/16 03:16:31;;;;;;;3.97;3.60;;;18.10;99.90;;;;;;5071947;28;20025;-75
2022/08/16 03:18:56;;;;;;;4.35;3.75;;;18.00;99.90;;;;;;5073939;28;20454;-74
2022/08/16 03:21:22;;;;;;;5.43;4.10;;;18.00;99.90;;;;;;5072987;28;20024;-74
2022/08/16 03:23:49;;;;;;;5.43;4.03;;;17.90;99.90;;;;;;5074020;28;20033;-74
2022/08/16 03:26:15;;;;;;;5.22;3.88;;;17.90;99.90;;;;;;5072155;28;20060;-75
2022/08/16 03:28:41;;;;;;;4.57;3.60;;;17.90;99.90;;;;;;5072270;28;20036;-74
2022/08/16 03:31:07;;;;;;;4.20;3.80;;;17.80;99.90;;;;;;5073246;28;20092;-74
2022/08/16 03:33:34;;;;;;;3.75;3.38;;;17.80;99.90;;;;;;5072041;28;20035;-75
2022/08/16 03:36:00;;;;;;;4.95;3.70;;;17.70;99.90;;;;;;5073759;28;20501;-74
2022/08/16 03:38:28;;;;;;;5.05;3.67;;;17.60;99.90;;;;;;5072573;28;20077;-75
2022/08/16 03:40:55;;;;;;;5.90;4.00;;;17.50;99.90;;;;;;5073353;28;20025;-74
2022/08/16 03:43:22;;;;;;;3.72;3.35;;;17.50;99.90;;;;;;5072393;28;20056;-74
2022/08/16 03:45:50;;;;;;;4.10;3.70;;;17.50;99.90;;;;;;5073145;28;20044;-74
2022/08/16 03:48:16;;;;;;;5.95;4.22;;;17.40;99.90;;;;;;5072336;28;20039;-74
2022/08/16 03:50:42;;;;;;;5.90;3.97;;;17.40;99.90;;;;;;5071734;28;20024;-74
2022/08/16 03:53:08;;;;;;;5.55;4.07;;;17.50;99.90;;;;;;5072197;28;20066;-76
2022/08/16 03:55:33;;;;;;;4.97;4.05;;;17.50;99.90;;;;;;5071901;28;20500;-74
2022/08/16 03:57:59;;;;;;;5.15;4.28;;;17.50;99.90;;;;;;5072084;28;20032;-75
2022/08/16 04:00:29;;;;;;;4.65;3.60;;;17.50;99.90;;;;;;5093041;28;20737;-75
2022/08/16 04:02:57;;;;;;;;;;;17.50;99.90;;;;;;5084824;28;20103;-74
2022/08/16 04:05:23;;;;;;;5.40;4.25;;;17.50;99.90;;;;;;5072151;28;19908;-75
2022/08/16 04:07:49;;;;;;;4.82;3.85;;;17.50;99.90;;;;;;5071391;28;20086;-75
2022/08/16 04:10:16;;;;;;;5.38;4.07;;;17.50;99.90;;;;;;5072353;28;20025;-74
2022/08/16 04:12:44;;;;;;;4.63;4.22;;;17.50;99.90;;;;;;5072903;28;20130;-74
2022/08/16 04:15:12;;;;;;;6.70;3.92;;;17.50;99.90;;;;;;5072210;28;20046;-75
2022/08/16 04:17:38;;;;;;;5.85;4.43;;;17.40;99.90;;;;;;5073082;28;20170;-74
2022/08/16 04:20:08;;;;;;;5.75;4.38;;;17.40;99.90;;;;;;5072689;28;20042;-74
2022/08/16 04:22:35;;;;;;;5.28;4.70;;;17.40;99.90;;;;;;5072115;28;20477;-73
2022/08/16 04:25:00;;;;;;;7.03;4.40;;;17.50;99.90;;;;;;5069949;28;20086;-74
2022/08/16 04:27:26;;;;;;;5.93;4.47;;;17.60;99.90;;;;;;5069523;28;20056;-75
2022/08/16 04:29:52;;;;;;;5.45;4.50;;;17.60;99.90;;;;;;5072566;28;20063;-74
2022/08/16 04:32:18;;;;;;;6.63;4.93;;;17.60;99.90;;;;;;5071353;28;20453;-75
2022/08/16 04:34:43;;;;;;;5.10;4.55;;;17.60;99.90;;;;;;5072492;28;20024;-74
2022/08/16 04:37:09;;;;;;;7.03;4.70;;;17.50;99.90;;;;;;5072177;28;20095;-75
2022/08/16 04:39:36;;;;;;;7.53;4.15;;;17.50;99.90;;;;;;5070050;28;20103;-75
2022/08/16 04:42:03;;;;;;;6.25;4.30;;;17.50;99.90;;;;;;5072600;28;20032;-75
2022/08/16 04:44:29;;;;;;;6.57;4.18;;;17.50;99.90;;;;;;5071917;28;20101;-75
2022/08/16 04:46:55;;;;;;;6.50;4.80;;;17.60;99.90;;;;;;5072037;28;20412;-75
2022/08/16 04:49:21;;;;;;;5.93;4.43;;;17.60;99.90;;;;;;5071522;28;20115;-75
2022/08/16 04:51:47;;;;;;;6.93;4.40;;;17.70;99.90;;;;;;5072238;28;20120;-75
2022/08/16 04:54:13;;;;;;;6.82;4.70;;;17.80;99.90;;;;;;5071530;28;20029;-75
2022/08/16 04:56:38;;;;;;;5.88;4.45;;;18.00;99.90;;;;;;5069638;28;20047;-75
2022/08/16 04:59:06;;;;;;;5.10;4.05;;;18.00;99.90;;;;;;5089920;28;20017;-74
2022/08/16 05:01:33;;;;;;;8.35;4.65;;;18.10;99.90;;;;;;5105564;28;20478;-73
2022/08/16 05:03:58;;;;;;;10.00;4.78;;;18.10;99.90;;;;;;5074687;28;20028;-72
2022/08/16 05:06:24;;;;;;;5.40;4.20;;;18.20;99.90;;;;;;5078652;28;20426;-72
2022/08/16 05:08:50;;;;;;;5.18;4.20;;;18.20;99.90;;;;;;5087765;28;20046;-72
2022/08/16 05:11:16;;;;;;;5.50;4.88;;;18.20;99.90;;;;;;5087503;28;20113;-72
2022/08/16 05:13:45;;;;;;;7.53;4.78;;;18.30;99.90;;;;;;5086656;28;20032;-73
2022/08/16 05:16:20;;;;;;;6.15;4.47;;;18.30;99.90;;;;;;5090117;28;20528;-74
2022/08/16 05:18:46;;;;;;;6.22;4.75;;;18.30;99.90;;;;;;5081248;28;20020;-75
2022/08/16 05:21:12;;;;;;;6.45;4.53;;;18.30;99.90;;;;;;5081240;28;20025;-74
2022/08/16 05:23:38;;;;;;;5.70;4.50;;;18.40;99.90;;;;;;5073204;28;20025;-74
2022/08/16 05:26:03;;;;;;;5.55;4.47;;;18.40;99.90;;;;;;5072463;28;20485;-74
2022/08/16 05:28:29;;;;;;;7.60;4.60;;;18.50;99.90;;;;;;5069213;28;20115;-74
2022/08/16 05:30:55;;;;;;;5.35;4.18;;;18.60;99.90;;;;;;5073281;28;20620;-73
2022/08/16 05:33:21;;;;;;;7.25;4.75;;;18.60;99.90;;;;;;5072341;28;20412;-73
2022/08/16 05:35:48;;;;;;;7.32;4.63;;;18.80;99.90;;;;;;5072719;28;20107;-73
2022/08/16 05:38:13;;;;;;;6.55;4.38;;;18.80;99.90;;;;;;5073258;28;20032;-74
2022/08/16 05:40:39;;;;;;;7.15;4.30;;;18.90;99.90;;;;;;5073298;28;20424;-73
2022/08/16 05:43:05;;;;;;;4.90;3.85;;;18.90;99.90;;;;;;5074290;28;20028;-84
2022/08/16 05:45:31;;;;;;;6.35;3.85;;;19.00;99.90;;;;;;5071416;28;20498;-89
2022/08/16 05:47:56;;;;;;;6.80;4.25;;;19.10;99.90;;;;;;5075364;28;20031;-87
2022/08/16 05:50:22;;;;;;;7.43;4.35;;;19.10;99.90;;;;;;5073945;28;20028;-87
2022/08/16 05:52:48;;;;;;;5.72;4.40;;;19.10;99.90;;;;;;5060823;28;20033;-80
2022/08/16 05:55:14;;;;;;;9.45;4.35;;;19.10;99.90;;;;;;5058201;28;20033;-80
2022/08/16 05:57:39;;;;;;;4.40;3.67;;;19.20;99.90;;;;;;5071161;28;20442;-76
2022/08/16 06:00:08;;;;;;;6.60;4.10;;;19.20;99.90;;;;;;5072249;28;20025;-76
2022/08/16 06:02:34;;;;;;;7.60;4.32;;;19.20;99.90;;;;;;5070038;28;20051;-76
2022/08/16 06:05:01;;;;;;;6.07;3.83;;;19.40;99.90;;;;;;5072617;28;20040;-76
2022/08/16 06:07:27;;;;;;;4.35;3.67;;;19.40;99.90;;;;;;5064868;28;20044;-75
2022/08/16 06:09:57;;;;;;;5.25;4.20;;;19.50;99.90;;;;;;5075266;28;20020;-75
2022/08/16 06:12:22;;;;;;;4.95;4.32;;;19.70;99.90;;;;;;5074422;28;20062;-72
2022/08/16 06:14:48;;;;;;;8.30;4.47;;;19.60;99.90;;;;;;5074134;28;20103;-73
2022/08/16 06:17:15;;;;;;;5.75;4.10;;;19.60;99.90;;;;;;5074440;28;20024;-74
2022/08/16 06:19:41;;;;;;;7.40;4.68;;;19.60;99.90;;;;;;5074481;28;20034;-73
2022/08/16 06:22:07;;;;;;;5.40;3.97;;;19.60;99.90;;;;;;5074423;28;20123;-73
2022/08/16 06:24:33;;;;;;;6.45;4.90;;;19.60;99.90;;;;;;5071368;28;20039;-74
2022/08/16 06:26:59;;;;;;;10.73;4.43;;;19.60;99.90;;;;;;5074372;28;20028;-73
2022/08/16 06:29:24;;;;;;;5.80;4.40;;;19.70;99.90;;;;;;5068521;28;20024;-71
2022/08/16 06:31:50;;;;;;;4.30;3.75;;;19.70;99.90;;;;;;5077508;28;20021;-71
2022/08/16 06:34:16;;;;;;;10.68;4.40;;;19.90;99.90;;;;;;5070143;28;20029;-74
2022/08/16 06:36:42;;;;;;;8.48;5.03;;;20.00;99.90;;;;;;5075875;28;20040;-73
2022/08/16 06:39:08;;;;;;;6.03;3.90;;;20.10;99.90;;;;;;5089414;28;20039;-72
2022/08/16 06:41:33;;;;;;;3.70;3.40;;;20.10;99.90;;;;;;5074874;28;20028;-72
2022/08/16 06:44:00;;;;;;;5.80;4.03;;;20.20;99.90;;;;;;5069643;28;20040;-73
2022/08/16 06:46:33;;;;;;;5.88;4.05;;;20.40;99.90;;;;;;5066574;28;20032;-73
2022/08/16 06:49:00;;;;;;;5.80;4.47;;;20.50;99.90;;;;;;5080659;28;20032;-73
2022/08/16 06:51:26;;;;;;;5.93;3.72;;;20.70;99.90;;;;;;5067680;28;20382;-73
2022/08/16 06:53:51;;;;;;;9.68;4.43;;;20.80;99.90;;;;;;5085107;28;20071;-72
2022/08/16 06:56:17;;;;;;;8.45;3.67;;;20.90;99.90;;;;;;5078390;28;20040;-74
2022/08/16 06:58:43;;;;;;;4.72;3.90;;;21.10;99.90;;;;;;5080967;28;20027;-73
2022/08/16 07:01:08;;;;;;;4.60;3.75;;;21.10;99.90;;;;;;5072306;28;20168;-73
2022/08/16 07:03:34;;;;;;;5.32;3.90;;;21.30;99.90;;;;;;5077224;28;20027;-73
2022/08/16 07:06:00;;;;;;;4.45;4.05;;;21.40;99.90;;;;;;5078839;28;20062;-72
2022/08/16 07:08:28;;;;;;;4.20;3.72;;;21.40;99.90;;;;;;5075654;28;20028;-73
2022/08/16 07:10:55;;;;;;;6.07;3.85;;;21.50;99.90;;;;;;5068412;28;20025;-72
2022/08/16 07:13:21;;;;;;;6.00;4.03;;;21.60;99.90;;;;;;5073554;28;20093;-72
2022/08/16 07:15:48;;;;;;;7.13;4.55;;;21.70;99.90;;;;;;5079346;28;20465;-72
2022/08/16 07:18:14;;;;;;;7.22;3.35;;;22.00;99.90;;;;;;5073183;28;20029;-73
2022/08/16 07:20:40;;;;;;;9.52;4.05;;;22.10;99.90;;;;;;5073668;28;20052;-72
2022/08/16 07:23:07;;;;;;;6.00;3.75;;;22.20;99.90;;;;;;5065324;28;20048;-74
2022/08/16 07:25:33;;;;;;;3.92;3.33;;;22.30;99.90;;;;;;5078528;28;20036;-72
2022/08/16 07:27:59;;;;;;;4.78;3.60;;;22.40;99.90;;;;;;5081936;28;20066;-72
2022/08/16 07:30:26;;;;;;;4.75;3.75;;;22.60;99.90;;;;;;5078006;28;20025;-73
2022/08/16 07:32:51;;;;;;;4.22;3.58;;;22.70;99.90;;;;;;5078060;28;20027;-72
2022/08/16 07:35:18;;;;;;;7.03;3.97;;;22.80;99.90;;;;;;5085378;28;20028;-74
2022/08/16 07:37:44;;;;;;;5.93;4.03;;;22.90;99.80;;;;;;5071047;28;20029;-72
2022/08/16 07:40:11;;;;;;;4.90;3.47;;;23.00;99.50;;;;;;5069626;28;20029;-68
2022/08/16 07:42:36;;;;;;;6.13;4.15;;;23.10;99.60;;;;;;5079686;28;20422;-69
2022/08/16 07:45:04;;;;;;;6.80;3.58;;;23.20;99.30;;;;;;5085799;28;20032;-68
2022/08/16 07:47:30;;;;;;;5.47;4.15;;;23.30;98.90;;;;;;5075661;28;20063;-68
2022/08/16 07:49:55;;;;;;;7.97;4.05;;;23.30;98.70;;;;;;5070854;28;20053;-68
2022/08/16 07:52:21;;;;;;;5.10;4.07;;;23.50;98.60;;;;;;5067274;28;20028;-68
2022/08/16 07:54:47;;;;;;;4.45;4.03;;;23.60;98.40;;;;;;5070434;28;20024;-68
2022/08/16 07:57:13;;;;;;;6.45;3.92;;;23.90;97.90;;;;;;5077551;28;20455;-68
2022/08/16 07:59:38;;;;;;;6.78;4.10;;;24.00;97.90;;;;;;5072527;28;20090;-67
2022/08/16 08:02:04;;;;;;;4.68;4.13;;;24.10;98.00;;;;;;5078894;28;20031;-68
2022/08/16 08:04:32;;;;;;;5.50;4.15;;;24.20;98.00;;;;;;5071590;28;20068;-68
2022/08/16 08:06:58;;;;;;;5.55;3.72;;;24.30;97.90;;;;;;5077955;28;20038;-68
2022/08/16 08:09:24;;;;;;;5.25;3.03;;;24.40;97.70;;;;;;5071513;28;20032;-68
2022/08/16 08:11:50;;;;;;;11.43;4.10;;;24.40;97.70;;;;;;5071515;28;20028;-69
2022/08/16 08:14:15;;;;;;;5.05;3.97;;;24.60;97.30;;;;;;5080556;28;20410;-70
2022/08/16 08:16:42;;;;;;;8.38;4.95;;;24.90;96.90;;;;;;5073397;28;20444;-68
2022/08/16 08:19:09;;;;;;;5.65;4.20;;;25.10;96.40;;;;;;5071659;28;20074;-69
2022/08/16 08:21:35;;;;;;;6.75;3.88;;;25.20;96.10;;;;;;5079814;28;20473;-69
2022/08/16 08:24:01;;;;;;;14.77;3.95;;;25.30;95.70;;;;;;5077815;28;20029;-69
2022/08/16 08:26:27;;;;;;;10.52;4.88;;;25.40;95.60;;;;;;5064890;28;20044;-70
2022/08/16 08:28:53;;;;;;;8.07;4.82;;;25.50;95.40;;;;;;5068687;28;20047;-69
2022/08/16 08:31:18;;;;;;;8.32;4.57;;;25.70;95.10;;;;;;5072654;28;20028;-87
2022/08/16 08:33:44;;;;;;;6.45;4.45;;;25.60;94.80;;;;;;5081178;28;20025;-87
2022/08/16 08:36:14;;;;;;;7.63;5.03;;;25.70;94.60;;;;;;5072800;28;20454;-87
2022/08/16 08:38:40;;;;;;;8.02;4.95;;;25.60;94.30;;;;;;5073379;28;20035;-84
2022/08/16 08:41:07;;;;;;;6.07;4.22;;;25.50;94.50;;;;;;5075248;28;20032;-87
2022/08/16 08:43:34;;;;;;;7.30;5.18;;;25.30;94.70;;;;;;5075604;28;20028;-83
2022/08/16 08:46:00;;;;;;;7.43;5.22;;;25.20;94.60;;;;;;5077509;28;20036;-85
2022/08/16 08:48:26;;;;;;;5.55;4.05;;;25.00;94.60;;;;;;5087959;28;20405;-88
2022/08/16 08:50:51;;;;;;;7.45;4.03;;;24.90;94.90;;;;;;5075758;28;20032;-87
2022/08/16 08:53:18;;;;;;;5.88;4.43;;;24.80;95.10;;;;;;5074422;28;20038;-88
2022/08/16 08:55:43;;;;;;;4.95;4.50;;;24.70;95.20;;;;;;5087203;28;20112;-86
2022/08/16 08:58:10;;;;;;;5.70;4.30;;;24.70;95.30;;;;;;5077255;28;20095;-88
2022/08/16 09:00:38;;;;;;;6.60;4.60;;;24.80;95.10;;;;;;5076339;28;20017;-86
2022/08/16 09:03:04;;;;;;;8.60;4.45;;;24.80;94.80;;;;;;5072947;28;20385;-86
2022/08/16 09:05:29;;;;;;;6.60;4.47;;;24.80;94.40;;;;;;5073844;28;20037;-86
2022/08/16 09:07:55;;;;;;;8.45;4.05;;;24.80;94.60;;;;;;5080657;28;20094;-88
2022/08/16 09:10:21;;;;;;;10.75;4.40;;;24.80;94.90;;;;;;5074294;28;20027;-87
2022/08/16 09:12:47;;;;;;;5.13;4.10;;;24.70;94.90;;;;;;5082249;28;20059;-88
2022/08/16 09:15:15;;;;;;;6.72;4.55;;;24.70;94.80;;;;;;5082003;28;20036;-86
2022/08/16 09:17:41;;;;;;;25.75;4.90;;;24.80;94.70;;;;;;5074574;28;20439;-88
2022/08/16 09:20:13;;;;;;;23.52;4.88;;;24.70;94.80;;;;;;5079296;28;20016;-86
2022/08/16 09:22:39;;;;;;;8.07;4.57;;;24.80;94.70;;;;;;5081954;28;20534;-68
2022/08/16 09:25:05;;;;;;;11.35;5.00;;;24.90;94.50;;;;;;5075071;28;20048;-68
2022/08/16 09:27:31;;;;;;;7.03;4.55;;;24.90;94.60;;;;;;5070818;28;20032;-68
2022/08/16 09:29:57;;;;;;;5.50;4.60;;;25.10;94.40;;;;;;5080050;28;20025;-68
2022/08/16 09:32:23;;;;;;;18.50;4.97;;;25.20;94.10;;;;;;5062101;28;20366;-68
2022/08/16 09:34:48;;;;;;;7.20;4.60;;;25.30;93.90;;;;;;5073791;28;20443;-68
2022/08/16 09:37:14;;;;;;;4.82;4.13;;;25.50;93.70;;;;;;5067963;28;20024;-68
2022/08/16 09:39:41;;;;;;;7.38;4.82;;;25.70;93.20;;;;;;5074868;28;20063;-67
2022/08/16 09:42:06;;;;;;;5.97;4.35;;;26.00;92.90;;;;;;5075083;28;20055;-67
2022/08/16 09:44:32;;;;;;;8.98;4.78;;;26.30;92.30;;;;;;5082900;28;20132;-67
2022/08/16 09:46:58;;;;;;;8.63;4.68;;;26.70;91.80;;;;;;5084884;28;20122;-67
2022/08/16 09:49:25;;;;;;;8.48;4.43;;;27.00;91.10;;;;;;5069978;28;20044;-67
2022/08/16 09:51:53;;;;;;;9.73;4.53;;;27.20;90.90;;;;;;5079612;28;20024;-67
2022/08/16 09:54:20;;;;;;;5.10;4.35;;;27.50;90.40;;;;;;5083142;28;20039;-69
2022/08/16 09:56:46;;;;;;;10.40;4.43;;;27.50;89.60;;;;;;5082392;28;20028;-68
2022/08/16 09:59:14;;;;;;;10.75;4.63;;;27.70;88.90;;;;;;5088007;28;20016;-67
2022/08/16 10:01:43;;;;;;;4.53;3.60;;;27.60;87.20;;;;;;5081790;28;20039;-68
2022/08/16 10:04:09;;;;;;;4.78;3.97;;;27.60;87.10;;;;;;5075747;28;20078;-68
2022/08/16 10:06:36;;;;;;;13.55;4.75;;;27.40;87.10;;;;;;5074963;28;20064;-68
2022/08/16 10:09:04;;;;;;;92.97;8.20;;;27.30;86.90;;;;;;5075051;28;20052;-68
2022/08/16 10:14:14;;;;;;;13.43;4.88;;;26.90;86.30;;;;;;5083235;28;20107;-68
2022/08/16 10:16:40;;;;;;;9.93;3.90;;;26.70;86.80;;;;;;5075032;28;20678;-68
2022/08/16 10:19:05;;;;;;;6.28;4.22;;;26.60;86.70;;;;;;5075625;28;20021;-68
2022/08/16 10:21:31;;;;;;;6.32;4.63;;;26.40;87.30;;;;;;5080661;28;20416;-68
2022/08/16 10:23:57;;;;;;;6.00;4.43;;;26.30;87.70;;;;;;5078116;28;20094;-68
2022/08/16 10:26:27;;;;;;;6.72;4.28;;;26.30;87.30;;;;;;5079114;28;20051;-69
2022/08/16 10:28:53;;;;;;;6.25;3.90;;;26.30;87.60;;;;;;5070723;28;20116;-67
2022/08/16 10:31:19;;;;;;;10.07;4.63;;;26.20;87.90;;;;;;5074605;28;20448;-68
2022/08/16 10:33:45;;;;;;;6.05;3.83;;;26.10;87.10;;;;;;5083570;28;20035;-67
2022/08/16 10:36:12;;;;;;;4.60;3.63;;;26.10;87.20;;;;;;5068032;28;20107;-68
2022/08/16 10:38:39;;;;;;;8.27;3.95;;;26.20;86.80;;;;;;5082652;28;20024;-68
2022/08/16 10:41:06;;;;;;;6.35;3.92;;;26.30;86.90;;;;;;5081592;28;20028;-68
2022/08/16 10:43:32;;;;;;;4.38;3.85;;;26.50;86.10;;;;;;5069119;28;20124;-68
2022/08/16 10:45:58;;;;;;;6.80;4.45;;;26.70;85.80;;;;;;5067917;28;20049;-68
2022/08/16 10:48:23;;;;;;;5.20;3.65;;;27.00;85.40;;;;;;5073115;28;20032;-69
2022/08/16 10:50:49;;;;;;;8.18;4.40;;;27.30;84.40;;;;;;5079549;28;20059;-68
2022/08/16 10:53:16;;;;;;;7.30;3.80;;;27.60;83.50;;;;;;5073595;28;20016;-68
2022/08/16 10:55:42;;;;;;;8.23;4.40;;;27.90;82.80;;;;;;5074692;28;20290;-68
2022/08/16 10:58:12;;;;;;;8.15;4.80;;;28.20;82.30;;;;;;5085507;28;20801;-68
2022/08/16 11:00:39;;;;;;;8.60;4.22;;;28.40;80.50;;;;;;5076011;28;20025;-68
2022/08/16 11:03:06;;;;;;;5.30;4.10;;;28.40;81.00;;;;;;5073095;28;20036;-68
2022/08/16 11:05:33;;;;;;;3.97;3.67;;;28.40;80.50;;;;;;5075025;28;20029;-68
2022/08/16 11:08:00;;;;;;;4.35;3.88;;;28.40;79.80;;;;;;5074817;28;20397;-68
2022/08/16 11:10:34;;;;;;;5.80;4.43;;;28.40;79.40;;;;;;5074027;28;20423;-69
2022/08/16 11:13:00;;;;;;;7.38;4.53;;;28.50;78.50;;;;;;5079915;28;20024;-68
2022/08/16 11:15:26;;;;;;;5.03;4.18;;;28.60;78.00;;;;;;5075817;28;20395;-68
2022/08/16 11:17:54;;;;;;;6.20;4.00;;;28.80;77.40;;;;;;5074685;28;20024;-67
2022/08/16 11:20:20;;;;;;;4.47;3.47;;;29.00;77.20;;;;;;5079783;28;20465;-67
2022/08/16 11:22:47;;;;;;;5.63;4.80;;;29.10;77.10;;;;;;5076661;28;20017;-68
2022/08/16 11:25:16;;;;;;;6.00;4.60;;;29.30;76.60;;;;;;5073561;28;20045;-68
2022/08/16 11:27:42;;;;;;;4.40;3.70;;;29.60;75.10;;;;;;5075829;28;20028;-68
2022/08/16 11:30:10;;;;;;;9.68;4.38;;;29.70;75.20;;;;;;5071825;28;20036;-67
2022/08/16 11:32:36;;;;;;;8.05;4.28;;;29.70;74.90;;;;;;5073319;28;20025;-67
2022/08/16 11:35:08;;;;;;;4.72;3.53;;;29.80;74.60;;;;;;5075836;28;20032;-69
2022/08/16 11:37:35;;;;;;;5.72;4.10;;;29.90;73.90;;;;;;5081572;28;20478;-67
2022/08/16 11:40:03;;;;;;;4.85;4.07;;;30.00;73.50;;;;;;5079422;28;20410;-66
2022/08/16 11:42:29;;;;;;;6.72;4.38;;;30.00;72.90;;;;;;5071554;28;20035;-68
2022/08/16 11:44:54;;;;;;;5.78;4.10;;;30.00;72.30;;;;;;5081666;28;20024;-68
2022/08/16 11:47:20;;;;;;;4.50;4.10;;;29.60;72.20;;;;;;5076161;28;20070;-67
2022/08/16 11:49:46;;;;;;;6.10;4.25;;;29.20;73.30;;;;;;5074433;28;20485;-68
2022/08/16 11:52:11;;;;;;;5.53;4.35;;;28.80;74.40;;;;;;5071412;28;20418;-67
2022/08/16 11:54:38;;;;;;;6.25;4.03;;;28.40;75.10;;;;;;5070948;28;20109;-67
2022/08/16 11:57:04;;;;;;;6.82;4.95;;;28.30;75.60;;;;;;5076758;28;20037;-67
2022/08/16 11:59:30;;;;;;;5.63;4.50;;;28.30;75.00;;;;;;5072606;28;20086;-68
2022/08/16 12:01:56;;;;;;;6.82;4.28;;;28.20;75.30;;;;;;5086530;28;20020;-68
2022/08/16 12:04:22;;;;;;;7.35;4.60;;;28.10;76.10;;;;;;5070788;28;20029;-67
2022/08/16 12:06:48;;;;;;;7.50;4.47;;;28.10;75.60;;;;;;5070910;28;20109;-68
2022/08/16 12:09:14;;;;;;;7.95;3.92;;;28.20;75.20;;;;;;5070924;28;20033;-68
2022/08/16 12:11:40;;;;;;;5.13;3.83;;;28.30;74.90;;;;;;5073516;28;20029;-68
2022/08/16 12:14:06;;;;;;;7.40;4.50;;;28.40;74.30;;;;;;5071247;28;20386;-68
2022/08/16 12:16:34;;;;;;;6.05;4.32;;;28.70;73.60;;;;;;5070357;28;20020;-68
2022/08/16 12:19:01;;;;;;;6.30;4.00;;;28.80;73.00;;;;;;5080659;28;20115;-68
2022/08/16 12:21:27;;;;;;;11.65;4.75;;;28.60;73.40;;;;;;5068988;28;20440;-69
2022/08/16 12:23:52;;;;;;;7.05;3.80;;;28.60;73.00;;;;;;5076785;28;20146;-67
2022/08/16 12:26:18;;;;;;;7.50;3.60;;;28.70;73.30;;;;;;5080237;28;20051;-68
2022/08/16 12:28:44;;;;;;;4.57;3.80;;;28.80;73.20;;;;;;5076739;28;20033;-67
2022/08/16 12:31:10;;;;;;;5.75;3.97;;;28.90;72.20;;;;;;5072279;28;20491;-68
2022/08/16 12:33:35;;;;;;;6.22;3.83;;;28.90;71.90;;;;;;5060309;28;20442;-67
2022/08/16 12:36:01;;;;;;;5.68;3.42;;;28.90;71.80;;;;;;5081114;28;20085;-67
2022/08/16 12:38:28;;;;;;;8.55;3.85;;;29.20;71.40;;;;;;5074460;28;20059;-68
2022/08/16 12:40:54;;;;;;;4.18;3.80;;;29.40;70.90;;;;;;5072137;28;20511;-67
2022/08/16 12:43:20;;;;;;;4.70;3.30;;;29.50;69.90;;;;;;5079418;28;20017;-67
2022/08/16 12:45:50;;;;;;;8.85;4.22;;;29.50;70.10;;;;;;5078547;28;20102;-67